Ballygowan, United Kingdom
Current Conditions -  °F | °C
As of 8:20 AM on Thursday 29 Jan 2015 (Local Time) from EGAC Reporting Station
Snow Showers Snow Showers  
Wind Chill: 26°   Ceiling: 4500
Heat Index: 34°   Visibility: 6mi
Dew Point: 32°   Wind: 9mph
Humidity: 93%   Direction: 230°SW
Pressure: 28.97"   Gusts: NA
Location:  54.5°N, 5.79°W
Report Text: EGAC 290820Z 23008KT 9999 -SHSN FEW005 SCT023 BKN045 01/M00 Q0981
Loading
Personal Weather Stations






























Interactive Weather Map New forecast layout! Learn more

10-Day Weather Forecast

Advertisements
Track Severe Weather on mobile